Time;durP1;ratioP1;P1;durP2;ratioP2;P2;SDS_P1;SDS_P2;PMS_P1;PMS_P2;Temp;Humidity;BMP_temperature;BMP_pressure;BME280_temperature;BME280_humidity;BME280_pressure;Samples;Min_cycle;Max_cycle;Signal;HPM_P1;HPM_P2
2021/04/21 00:00:34;;;;;;;42.53;34.87;;;9.90;99.90;;;;;;5071528;28;20451;-63
2021/04/21 00:03:00;;;;;;;39.93;35.83;;;9.80;99.90;;;;;;5071727;28;20814;-61
2021/04/21 00:05:27;;;;;;;41.40;37.30;;;9.80;99.90;;;;;;5071273;28;20524;-59
2021/04/21 00:07:55;;;;;;;43.33;37.37;;;9.70;99.90;;;;;;5071536;28;20469;-63
2021/04/21 00:10:24;;;;;;;42.17;37.77;;;9.70;99.90;;;;;;5071518;28;20439;-63
2021/04/21 00:12:51;;;;;;;40.63;36.50;;;9.70;99.90;;;;;;5071601;28;20439;-63
2021/04/21 00:15:21;;;;;;;43.23;38.40;;;9.60;99.90;;;;;;5074312;28;20466;-61
2021/04/21 00:17:50;;;;;;;41.90;37.50;;;9.50;99.90;;;;;;5075517;28;20486;-62
2021/04/21 00:20:18;;;;;;;41.80;36.83;;;9.50;99.90;;;;;;5075551;28;20455;-62
2021/04/21 00:22:52;;;;;;;38.50;34.30;;;9.40;99.90;;;;;;5075544;28;20442;-62
2021/04/21 00:25:19;;;;;;;42.97;38.60;;;9.40;99.90;;;;;;5075543;28;20459;-62
2021/04/21 00:27:46;;;;;;;42.33;37.30;;;9.30;99.90;;;;;;5075241;28;20442;-63
2021/04/21 00:30:15;;;;;;;42.73;37.83;;;9.20;99.90;;;;;;5075520;28;20447;-62
2021/04/21 00:32:45;;;;;;;43.10;36.63;;;9.10;99.90;;;;;;5075313;28;20465;-63
2021/04/21 00:35:15;;;;;;;42.90;38.57;;;9.10;99.90;;;;;;5075410;28;20455;-62
2021/04/21 00:37:45;;;;;;;42.30;37.73;;;9.10;99.90;;;;;;5074992;28;20832;-63
2021/04/21 00:40:16;;;;;;;41.10;37.00;;;9.00;99.90;;;;;;5075179;28;20438;-62
2021/04/21 00:42:51;;;;;;;44.87;39.37;;;9.00;99.90;;;;;;5075171;28;20451;-62
2021/04/21 00:45:19;;;;;;;46.10;40.07;;;8.90;99.90;;;;;;5075223;28;20545;-63
2021/04/21 00:47:52;;;;;;;45.73;39.17;;;8.90;99.90;;;;;;5074889;28;20442;-63
2021/04/21 00:50:22;;;;;;;53.63;47.83;;;8.90;99.90;;;;;;5074925;28;20442;-63
2021/04/21 00:52:50;;;;;;;47.03;42.27;;;8.90;99.90;;;;;;5075077;28;20921;-62
2021/04/21 00:55:22;;;;;;;48.07;43.07;;;8.90;99.90;;;;;;5074843;28;20463;-63
2021/04/21 00:57:59;;;;;;;48.47;43.47;;;8.90;99.90;;;;;;5074802;28;20482;-63
2021/04/21 01:00:30;;;;;;;50.80;45.50;;;8.90;99.90;;;;;;5074754;28;20454;-63
2021/04/21 01:03:02;;;;;;;48.83;43.47;;;8.90;99.90;;;;;;5074803;28;20443;-63
2021/04/21 01:05:31;;;;;;;50.30;45.00;;;8.90;99.90;;;;;;5074437;28;20489;-63
2021/04/21 01:08:00;;;;;;;53.10;47.40;;;8.90;99.90;;;;;;5074790;28;20482;-61
2021/04/21 01:10:29;;;;;;;47.90;42.80;;;8.80;99.90;;;;;;5074486;28;20447;-63
2021/04/21 01:12:57;;;;;;;51.07;44.87;;;8.80;99.90;;;;;;5074708;28;20447;-63
2021/04/21 01:15:25;;;;;;;51.43;45.93;;;8.80;99.90;;;;;;5074216;28;20459;-62
2021/04/21 01:17:53;;;;;;;52.90;47.13;;;8.70;99.90;;;;;;5074283;28;20439;-63
2021/04/21 01:20:28;;;;;;;50.63;45.53;;;8.70;99.90;;;;;;5074394;28;20443;-60
2021/04/21 01:23:13;;;;;;;49.47;44.37;;;8.70;99.90;;;;;;5074408;28;20447;-63
2021/04/21 01:25:51;;;;;;;56.57;47.20;;;8.70;99.90;;;;;;5072943;28;20463;-63
2021/04/21 01:28:23;;;;;;;56.17;49.13;;;8.60;99.90;;;;;;5074008;28;20474;-63
2021/04/21 01:30:50;;;;;;;54.73;48.93;;;8.50;99.90;;;;;;5074472;28;20465;-65
2021/04/21 01:33:19;;;;;;;56.10;49.10;;;8.40;99.90;;;;;;5074073;28;20439;-64
2021/04/21 01:35:55;;;;;;;55.70;45.88;;;8.40;99.90;;;;;;5073270;28;20438;-66
2021/04/21 01:38:25;;;;;;;57.80;44.43;;;8.40;99.90;;;;;;5073732;28;20193;-64
2021/04/21 01:40:53;;;;;;;59.50;46.10;;;8.40;99.90;;;;;;5074158;28;20439;-64
2021/04/21 01:43:24;;;;;;;52.67;42.07;;;8.40;99.90;;;;;;5073941;28;20948;-64
2021/04/21 01:45:56;;;;;;;56.67;48.80;;;8.40;99.90;;;;;;5073990;28;20455;-64
2021/04/21 01:48:25;;;;;;;61.10;54.57;;;8.30;99.90;;;;;;5073678;28;20524;-64
2021/04/21 01:50:52;;;;;;;56.37;50.30;;;8.30;99.90;;;;;;5074060;28;20451;-64
2021/04/21 01:53:34;;;;;;;56.60;50.40;;;8.30;99.90;;;;;;5073819;28;20443;-64
2021/04/21 01:56:08;;;;;;;61.70;51.17;;;8.30;99.90;;;;;;5073620;28;20463;-64
2021/04/21 01:59:00;;;;;;;57.23;51.03;;;8.20;99.90;;;;;;5073521;28;20443;-64
2021/04/21 02:01:46;;;;;;;58.73;52.00;;;8.20;99.90;;;;;;5073575;28;20450;-64
2021/04/21 02:04:27;;;;;;;59.13;47.10;;;8.20;99.90;;;;;;5073650;28;20493;-64
2021/04/21 02:07:00;;;;;;;66.80;56.80;;;8.10;99.90;;;;;;5072553;28;20928;-64
2021/04/21 02:09:58;;;;;;;59.13;52.93;;;8.10;99.90;;;;;;5072089;28;20925;-64
2021/04/21 02:12:53;;;;;;;61.57;54.93;;;8.10;99.90;;;;;;5072628;28;20443;-63
2021/04/21 02:15:29;;;;;;;69.90;58.50;;;8.00;99.90;;;;;;5073416;28;20512;-64
2021/04/21 02:18:03;;;;;;;60.40;50.60;;;8.00;99.90;;;;;;5073487;28;20435;-64
2021/04/21 02:20:36;;;;;;;61.17;52.93;;;8.00;99.90;;;;;;5073213;28;20439;-64
2021/04/21 02:23:07;;;;;;;62.70;53.97;;;8.00;99.90;;;;;;5073433;28;20959;-64
2021/04/21 02:25:58;;;;;;;62.90;54.03;;;7.90;99.90;;;;;;5073057;28;20964;-64
2021/04/21 02:28:35;;;;;;;61.27;53.60;;;7.90;99.90;;;;;;5070390;28;20478;-64
2021/04/21 02:31:14;;;;;;;67.80;56.20;;;7.90;99.90;;;;;;5073328;28;20452;-64
2021/04/21 02:33:47;;;;;;;65.23;56.67;;;7.80;99.90;;;;;;5073000;28;20443;-64
2021/04/21 02:36:23;;;;;;;64.00;57.10;;;7.80;99.90;;;;;;5072958;28;20467;-64
2021/04/21 02:38:55;;;;;;;63.30;54.93;;;7.80;99.90;;;;;;5072392;28;20807;-64
2021/04/21 02:41:28;;;;;;;74.20;56.70;;;7.70;99.90;;;;;;5073054;28;20443;-64
2021/04/21 02:44:04;;;;;;;76.47;61.27;;;7.70;99.90;;;;;;5072969;28;20439;-64
2021/04/21 02:46:40;;;;;;;75.03;58.47;;;7.60;99.90;;;;;;5072671;28;20494;-64
2021/04/21 02:49:35;;;;;;;69.00;56.47;;;7.60;99.90;;;;;;5072517;28;20454;-64
2021/04/21 02:52:05;;;;;;;71.67;57.47;;;7.50;99.90;;;;;;5067163;28;20455;-64
2021/04/21 02:54:46;;;;;;;69.40;56.80;;;7.50;99.90;;;;;;5072566;28;20447;-64
2021/04/21 02:57:19;;;;;;;74.23;59.70;;;7.50;99.90;;;;;;5072707;28;20435;-64
2021/04/21 02:59:51;;;;;;;72.00;60.63;;;7.50;99.90;;;;;;5072434;28;20446;-64
2021/04/21 03:02:26;;;;;;;77.43;60.90;;;7.40;99.90;;;;;;5072537;28;20473;-64
2021/04/21 03:04:57;;;;;;;87.63;67.30;;;7.40;99.90;;;;;;5072406;28;20453;-64
2021/04/21 03:07:28;;;;;;;86.17;68.03;;;7.30;99.90;;;;;;5072265;28;20479;-64
2021/04/21 03:10:02;;;;;;;87.23;64.70;;;7.30;99.90;;;;;;5072273;28;20804;-64
2021/04/21 03:12:30;;;;;;;80.27;60.87;;;7.30;99.90;;;;;;5072299;28;20435;-64
2021/04/21 03:15:01;;;;;;;85.57;64.40;;;7.30;99.90;;;;;;5072181;28;20820;-64
2021/04/21 03:17:29;;;;;;;90.70;68.17;;;7.30;99.90;;;;;;5072249;28;20496;-64
2021/04/21 03:19:59;;;;;;;82.97;62.77;;;7.30;99.90;;;;;;5072116;28;20447;-64
2021/04/21 03:22:29;;;;;;;86.40;63.77;;;7.30;99.90;;;;;;5072129;28;20448;-64
2021/04/21 03:25:01;;;;;;;86.00;62.97;;;7.20;99.90;;;;;;5072167;28;20443;-64
2021/04/21 03:27:31;;;;;;;80.67;59.87;;;7.20;99.90;;;;;;5071974;28;20478;-64
2021/04/21 03:30:02;;;;;;;89.50;61.73;;;7.20;99.90;;;;;;5072060;28;20455;-64
2021/04/21 03:32:35;;;;;;;87.43;63.83;;;7.20;99.90;;;;;;5071952;28;20936;-64
2021/04/21 03:35:03;;;;;;;80.50;61.30;;;7.20;99.90;;;;;;5072016;28;20459;-64
2021/04/21 03:37:37;;;;;;;76.53;59.10;;;7.20;99.90;;;;;;5071926;28;20439;-64
2021/04/21 03:40:05;;;;;;;82.43;61.87;;;7.20;99.90;;;;;;5072035;28;20466;-64
2021/04/21 03:42:32;;;;;;;81.27;62.13;;;7.20;99.90;;;;;;5071817;28;20431;-64
2021/04/21 03:44:59;;;;;;;92.37;65.17;;;7.10;99.90;;;;;;5071728;28;20447;-64
2021/04/21 03:47:25;;;;;;;92.33;69.53;;;7.10;99.90;;;;;;5071800;28;20471;-64
2021/04/21 03:49:54;;;;;;;100.13;73.23;;;7.10;99.90;;;;;;5070838;28;20444;-64
2021/04/21 03:52:23;;;;;;;90.20;66.47;;;7.10;99.90;;;;;;5071878;28;20446;-64
2021/04/21 03:54:51;;;;;;;96.90;71.77;;;7.10;99.90;;;;;;5071600;28;20439;-64
2021/04/21 03:57:19;;;;;;;98.50;67.83;;;7.10;99.90;;;;;;5071962;28;20500;-64
2021/04/21 03:59:47;;;;;;;90.80;66.27;;;7.20;99.90;;;;;;5071489;28;20474;-64
2021/04/21 04:02:14;;;;;;;78.57;62.73;;;7.20;99.90;;;;;;5071719;28;20446;-65
2021/04/21 04:04:47;;;;;;;88.03;65.87;;;7.20;99.90;;;;;;5071496;28;20443;-64
2021/04/21 04:07:18;;;;;;;84.23;63.90;;;7.20;99.90;;;;;;5071581;28;21009;-64
2021/04/21 04:09:47;;;;;;;90.57;66.20;;;7.30;99.90;;;;;;5071824;28;20439;-64
2021/04/21 04:12:14;;;;;;;82.40;62.67;;;7.30;99.90;;;;;;5071674;28;20652;-64
2021/04/21 04:14:41;;;;;;;87.33;63.17;;;7.30;99.90;;;;;;5071580;28;20805;-64
2021/04/21 04:17:07;;;;;;;87.60;60.20;;;7.40;99.90;;;;;;5071337;28;20427;-64
2021/04/21 04:19:36;;;;;;;73.87;60.70;;;7.40;99.90;;;;;;5071334;28;20852;-64
2021/04/21 04:22:06;;;;;;;84.90;58.87;;;7.40;99.90;;;;;;5071319;28;20443;-64
2021/04/21 04:24:42;;;;;;;77.23;57.83;;;7.40;99.90;;;;;;5071366;28;20991;-64
2021/04/21 04:27:14;;;;;;;75.67;57.87;;;7.40;99.90;;;;;;5071444;28;20669;-64
2021/04/21 04:29:42;;;;;;;78.47;60.80;;;7.50;99.90;;;;;;5071197;28;20867;-65
2021/04/21 04:32:11;;;;;;;88.10;67.00;;;7.50;99.90;;;;;;5071422;28;20936;-64
2021/04/21 04:34:39;;;;;;;89.03;63.07;;;7.60;99.90;;;;;;5071264;28;20447;-64
2021/04/21 04:37:06;;;;;;;80.47;62.10;;;7.60;99.90;;;;;;5071340;28;20445;-64
2021/04/21 04:39:32;;;;;;;73.30;53.40;;;7.70;99.90;;;;;;5071087;28;20450;-64
2021/04/21 04:42:00;;;;;;;79.23;59.80;;;7.80;99.90;;;;;;5071258;28;20439;-64
2021/04/21 04:44:26;;;;;;;88.10;62.67;;;7.80;99.90;;;;;;5071193;28;20435;-64
2021/04/21 04:46:59;;;;;;;89.50;62.83;;;7.90;99.90;;;;;;5071056;28;20483;-64
2021/04/21 04:49:29;;;;;;;83.90;64.40;;;8.00;99.90;;;;;;5071083;28;20489;-64
2021/04/21 04:52:00;;;;;;;75.47;55.50;;;8.10;99.90;;;;;;5071221;28;20450;-64
2021/04/21 04:54:27;;;;;;;72.17;51.87;;;8.20;99.90;;;;;;5071275;28;21089;-64
2021/04/21 04:56:55;;;;;;;76.60;54.43;;;8.30;99.90;;;;;;5071093;28;20467;-64
2021/04/21 04:59:27;;;;;;;74.87;54.00;;;8.40;99.90;;;;;;5070980;28;20452;-64
2021/04/21 05:01:59;;;;;;;71.83;52.93;;;8.40;99.90;;;;;;5074495;28;20791;-65
2021/04/21 05:04:32;;;;;;;63.60;47.67;;;8.50;99.90;;;;;;5074877;28;20443;-64
2021/04/21 05:07:03;;;;;;;62.03;50.30;;;8.60;99.90;;;;;;5074472;28;20486;-64
2021/04/21 05:09:33;;;;;;;79.10;53.37;;;8.70;99.90;;;;;;5074393;28;20531;-64
2021/04/21 05:12:02;;;;;;;72.43;53.70;;;8.70;99.90;;;;;;5074533;28;21003;-64
2021/04/21 05:14:32;;;;;;;80.73;53.37;;;8.90;99.90;;;;;;5074338;28;20447;-64
2021/04/21 05:17:34;;;;;;;68.60;52.20;;;9.00;99.90;;;;;;5074571;28;20455;-64
2021/04/21 05:20:37;;;;;;;73.40;54.07;;;9.10;99.90;;;;;;5074536;28;20434;-64
2021/04/21 05:23:58;;;;;;;67.30;53.40;;;9.20;99.90;;;;;;5074371;28;20438;-64
2021/04/21 05:26:36;;;;;;;71.23;52.10;;;9.40;99.90;;;;;;5074134;28;20463;-65
2021/04/21 05:29:37;;;;;;;73.07;56.23;;;9.50;99.90;;;;;;5072682;28;20553;-64
2021/04/21 05:32:54;;;;;;;69.50;53.60;;;9.60;99.90;;;;;;5073059;28;20438;-65
2021/04/21 05:36:07;;;;;;;65.37;52.07;;;9.80;99.90;;;;;;5073400;28;20584;-65
2021/04/21 05:39:09;;;;;;;66.93;54.27;;;10.00;99.90;;;;;;5068584;28;20448;-65
2021/04/21 05:42:11;;;;;;;67.27;55.53;;;10.10;99.90;;;;;;5073960;28;20846;-65
2021/04/21 05:45:12;;;;;;;75.97;58.10;;;10.30;99.90;;;;;;5073750;28;20970;-65
2021/04/21 05:48:15;;;;;;;70.03;55.90;;;10.40;99.90;;;;;;5054058;28;20483;-65
2021/04/21 05:51:28;;;;;;;72.53;58.63;;;10.60;99.90;;;;;;5073633;28;20442;-65
2021/04/21 05:54:44;;;;;;;63.27;56.53;;;10.70;99.90;;;;;;5073927;28;20442;-65
2021/04/21 05:57:51;;;;;;;69.40;54.03;;;10.90;99.90;;;;;;5073542;28;20458;-65
2021/04/21 06:00:48;;;;;;;61.80;54.30;;;11.10;99.90;;;;;;5073524;28;20443;-65
2021/04/21 06:03:17;;;;;;;63.20;55.30;;;11.20;99.90;;;;;;5073488;28;20446;-65
2021/04/21 06:05:44;;;;;;;60.37;54.07;;;11.20;99.90;;;;;;5073199;28;20537;-65
2021/04/21 06:08:12;;;;;;;59.37;53.23;;;11.30;99.90;;;;;;5073223;28;20538;-65
2021/04/21 06:10:38;;;;;;;66.33;59.33;;;11.20;99.90;;;;;;5073356;28;20443;-65
2021/04/21 06:13:04;;;;;;;65.07;57.93;;;11.20;99.90;;;;;;5072423;28;20443;-65
2021/04/21 06:15:32;;;;;;;60.73;54.43;;;11.10;99.90;;;;;;5073124;28;20482;-65
2021/04/21 06:17:59;;;;;;;66.67;59.40;;;11.10;99.90;;;;;;5072999;28;20449;-65
2021/04/21 06:20:33;;;;;;;63.57;56.83;;;11.00;99.90;;;;;;5073143;28;20887;-65
2021/04/21 06:23:01;;;;;;;64.87;58.03;;;11.00;99.90;;;;;;5073075;28;20444;-65
2021/04/21 06:25:28;;;;;;;70.40;60.77;;;11.00;99.90;;;;;;5072786;28;20840;-65
2021/04/21 06:28:07;;;;;;;66.40;59.40;;;11.00;99.90;;;;;;5072641;28;20478;-65
2021/04/21 06:30:33;;;;;;;69.00;59.40;;;10.90;99.90;;;;;;5072949;28;20450;-65
2021/04/21 06:32:59;;;;;;;63.33;56.63;;;10.90;99.90;;;;;;5073106;28;20482;-65
2021/04/21 06:35:30;;;;;;;67.37;58.90;;;10.90;99.90;;;;;;5072764;28;20809;-65
2021/04/21 06:37:56;;;;;;;66.23;59.57;;;11.00;99.90;;;;;;5072689;28;20998;-64
2021/04/21 06:40:26;;;;;;;63.90;56.93;;;11.00;99.90;;;;;;5072772;28;20501;-66
2021/04/21 06:42:53;;;;;;;62.73;56.10;;;11.00;99.90;;;;;;5072610;28;20952;-65
2021/04/21 06:45:23;;;;;;;62.10;55.57;;;11.10;99.90;;;;;;5072610;28;20459;-65
2021/04/21 06:47:49;;;;;;;62.53;56.27;;;11.10;99.90;;;;;;5072398;28;20893;-65
2021/04/21 06:50:16;;;;;;;64.07;57.53;;;11.20;99.90;;;;;;5072474;28;20941;-64
2021/04/21 06:52:44;;;;;;;63.97;57.37;;;11.30;99.90;;;;;;5072476;28;20497;-65
2021/04/21 06:55:12;;;;;;;63.43;56.57;;;11.30;99.90;;;;;;5072337;28;20486;-65
2021/04/21 06:57:38;;;;;;;66.23;59.53;;;11.40;99.90;;;;;;5072175;28;21011;-65
2021/04/21 07:00:08;;;;;;;64.60;58.10;;;11.50;99.90;;;;;;5072266;28;20439;-65
2021/04/21 07:02:35;;;;;;;63.63;57.30;;;11.50;99.90;;;;;;5072404;28;20447;-65
2021/04/21 07:05:02;;;;;;;68.37;61.57;;;11.60;99.90;;;;;;5072031;28;20479;-65
2021/04/21 07:07:28;;;;;;;67.67;60.73;;;11.70;99.90;;;;;;5072137;28;20501;-65
2021/04/21 07:09:56;;;;;;;66.27;59.67;;;11.70;99.90;;;;;;5071871;28;20451;-65
2021/04/21 07:12:23;;;;;;;69.03;62.17;;;11.80;99.90;;;;;;5072101;28;20807;-65
2021/04/21 07:14:50;;;;;;;67.77;59.90;;;11.90;99.90;;;;;;5071974;28;20439;-65
2021/04/21 07:17:17;;;;;;;71.60;64.40;;;12.10;99.90;;;;;;5071903;28;20526;-65
2021/04/21 07:19:45;;;;;;;65.83;59.07;;;12.20;99.90;;;;;;5071742;28;20445;-65
2021/04/21 07:22:13;;;;;;;67.30;60.50;;;12.20;99.90;;;;;;5071684;28;20439;-65
2021/04/21 07:24:40;;;;;;;67.83;61.30;;;12.30;99.90;;;;;;5071896;28;20447;-65
2021/04/21 07:27:12;;;;;;;68.43;61.63;;;12.30;99.90;;;;;;5071681;28;20479;-65
2021/04/21 07:29:39;;;;;;;67.77;60.80;;;12.20;99.90;;;;;;5071657;28;20906;-65
2021/04/21 07:32:19;;;;;;;66.93;59.57;;;12.20;99.90;;;;;;5071758;28;20477;-65
2021/04/21 07:34:56;;;;;;;67.33;60.63;;;12.20;99.90;;;;;;5071623;28;20439;-65
2021/04/21 07:37:32;;;;;;;68.80;62.00;;;12.30;99.90;;;;;;5071958;28;20470;-65
2021/04/21 07:39:58;;;;;;;72.63;65.20;;;12.30;99.90;;;;;;5071673;28;20443;-65
2021/04/21 07:42:25;;;;;;;70.00;63.07;;;12.30;99.90;;;;;;5071604;28;20446;-64
2021/04/21 07:44:53;;;;;;;70.07;62.67;;;12.40;99.90;;;;;;5071501;28;20994;-65
2021/04/21 07:47:21;;;;;;;67.47;61.07;;;12.40;99.90;;;;;;5071522;28;20902;-65
2021/04/21 07:49:55;;;;;;;73.10;65.70;;;12.50;99.90;;;;;;5071202;28;20500;-65
2021/04/21 07:52:23;;;;;;;72.30;65.10;;;12.50;99.90;;;;;;5071613;28;20519;-65
2021/04/21 07:55:04;;;;;;;71.63;64.63;;;12.70;99.90;;;;;;5071457;28;20457;-65
2021/04/21 07:57:31;;;;;;;71.80;64.67;;;12.80;99.90;;;;;;5071347;28;20435;-65
2021/04/21 07:59:57;;;;;;;74.57;67.33;;;13.00;99.90;;;;;;5071465;28;20447;-65
2021/04/21 08:02:23;;;;;;;74.07;66.77;;;13.20;99.90;;;;;;5071434;28;20440;-65
2021/04/21 08:04:53;;;;;;;77.70;69.97;;;13.40;99.90;;;;;;5071247;28;20439;-65
2021/04/21 08:07:42;;;;;;;73.67;66.53;;;13.40;99.90;;;;;;5071256;28;20606;-65
2021/04/21 08:10:21;;;;;;;72.30;65.17;;;13.70;99.90;;;;;;5066808;28;20462;-64
2021/04/21 08:12:48;;;;;;;68.20;61.33;;;13.80;99.90;;;;;;5071323;28;20497;-64
2021/04/21 08:15:15;;;;;;;70.37;63.60;;;13.90;99.90;;;;;;5071241;28;20451;-65
2021/04/21 08:17:51;;;;;;;69.77;62.97;;;14.20;99.90;;;;;;5071184;28;20812;-65
2021/04/21 08:20:24;;;;;;;70.40;63.60;;;14.20;99.90;;;;;;5071244;28;20450;-65
2021/04/21 08:22:55;;;;;;;64.47;57.90;;;14.40;99.90;;;;;;5071359;28;20924;-65
2021/04/21 08:25:21;;;;;;;61.30;55.57;;;14.80;99.90;;;;;;5071122;28;20472;-64
2021/04/21 08:27:48;;;;;;;62.00;56.03;;;15.10;99.90;;;;;;5070794;28;21004;-65
2021/04/21 08:30:16;;;;;;;60.00;53.77;;;15.50;99.90;;;;;;5071057;28;20455;-65
2021/04/21 08:32:42;;;;;;;62.37;56.57;;;15.60;99.90;;;;;;5071091;28;20444;-65
2021/04/21 08:35:10;;;;;;;61.77;55.20;;;15.60;99.90;;;;;;5071841;28;20468;-64
2021/04/21 08:37:36;;;;;;;60.57;54.70;;;15.70;99.90;;;;;;5074952;28;20446;-65
2021/04/21 08:40:03;;;;;;;61.00;55.40;;;15.60;99.60;;;;;;5074945;28;20447;-65
2021/04/21 08:42:31;;;;;;;58.10;52.63;;;15.80;99.90;;;;;;5075082;28;20443;-65
2021/04/21 08:44:59;;;;;;;52.47;47.27;;;16.10;99.60;;;;;;5075038;28;20866;-64
2021/04/21 08:47:26;;;;;;;56.20;51.03;;;15.60;97.20;;;;;;5074797;28;20475;-65
2021/04/21 08:49:55;;;;;;;56.20;50.70;;;15.90;97.00;;;;;;5074590;28;20816;-65
2021/04/21 08:52:24;;;;;;;52.17;47.67;;;16.20;96.30;;;;;;5074771;28;20807;-65
2021/04/21 08:54:54;;;;;;;53.43;48.53;;;16.30;94.40;;;;;;5074648;28;20447;-65
2021/04/21 08:57:20;;;;;;;53.13;48.47;;;16.40;93.10;;;;;;5074680;28;20625;-65
2021/04/21 08:59:47;;;;;;;57.27;51.17;;;16.70;92.80;;;;;;5074381;28;20873;-65
2021/04/21 09:02:16;;;;;;;52.73;48.13;;;16.70;91.60;;;;;;5074441;28;20439;-64
2021/04/21 09:04:42;;;;;;;51.93;47.57;;;16.90;90.90;;;;;;5074377;28;20455;-65
2021/04/21 09:07:09;;;;;;;53.03;48.43;;;17.10;87.70;;;;;;5074371;28;20804;-65
2021/04/21 09:09:36;;;;;;;53.17;48.20;;;16.40;86.20;;;;;;5074131;28;20466;-65
2021/04/21 09:12:03;;;;;;;56.03;50.73;;;16.40;86.00;;;;;;5074469;28;20446;-64
2021/04/21 09:14:29;;;;;;;53.27;48.40;;;16.40;85.90;;;;;;5074153;28;20956;-65
2021/04/21 09:16:56;;;;;;;52.83;47.80;;;16.10;85.20;;;;;;5074114;28;20467;-65
2021/04/21 09:19:23;;;;;;;51.50;47.10;;;16.20;87.90;;;;;;5074198;28;20450;-64
2021/04/21 09:22:05;;;;;;;48.40;44.47;;;16.10;88.90;;;;;;5074314;28;20474;-64
2021/04/21 09:24:31;;;;;;;47.13;43.13;;;16.10;83.30;;;;;;5074045;28;20947;-65
2021/04/21 09:26:57;;;;;;;46.00;42.20;;;16.20;81.40;;;;;;5073750;28;20459;-64
2021/04/21 09:29:25;;;;;;;43.37;39.80;;;16.10;79.60;;;;;;5073465;28;20443;-64
2021/04/21 09:32:06;;;;;;;46.03;42.10;;;16.00;77.80;;;;;;5073858;28;20811;-64
2021/04/21 09:34:33;;;;;;;45.87;42.13;;;16.20;79.90;;;;;;5074068;28;20500;-65
2021/04/21 09:36:59;;;;;;;48.73;44.30;;;16.50;82.80;;;;;;5073924;28;20467;-65
2021/04/21 09:39:25;;;;;;;46.87;42.97;;;16.80;79.40;;;;;;5073706;28;20451;-65
2021/04/21 09:41:59;;;;;;;47.07;43.20;;;17.20;78.70;;;;;;5073838;28;20967;-65
2021/04/21 09:44:28;;;;;;;47.77;43.53;;;17.20;74.80;;;;;;5073992;28;20935;-64
2021/04/21 09:46:55;;;;;;;45.67;41.67;;;17.30;73.10;;;;;;5072379;28;20467;-65
2021/04/21 09:49:34;;;;;;;43.00;39.30;;;17.20;70.80;;;;;;5073488;28;20446;-65
2021/04/21 09:52:02;;;;;;;42.90;39.30;;;17.40;68.60;;;;;;5073809;28;20501;-65
2021/04/21 09:54:30;;;;;;;45.20;41.30;;;17.30;67.60;;;;;;5073600;28;20443;-64
2021/04/21 09:57:08;;;;;;;45.77;41.97;;;17.80;67.60;;;;;;5073541;28;20490;-64
2021/04/21 09:59:34;;;;;;;46.87;42.57;;;17.60;67.00;;;;;;5073268;28;20443;-65
2021/04/21 10:02:01;;;;;;;46.03;42.33;;;17.50;66.70;;;;;;5073632;28;20534;-65
2021/04/21 10:04:29;;;;;;;43.23;39.90;;;17.70;67.90;;;;;;5073466;28;20447;-64
2021/04/21 10:06:58;;;;;;;44.10;40.40;;;17.30;65.70;;;;;;5073365;28;20475;-65
2021/04/21 10:09:29;;;;;;;44.13;40.70;;;17.60;67.20;;;;;;5073673;28;20532;-66
2021/04/21 10:12:17;;;;;;;42.53;39.00;;;17.60;67.00;;;;;;5073149;28;20778;-66
2021/04/21 10:14:45;;;;;;;39.80;36.77;;;17.60;67.10;;;;;;5073289;28;20439;-66
2021/04/21 10:17:13;;;;;;;40.57;37.07;;;17.90;66.90;;;;;;5073293;28;20439;-66
2021/04/21 10:19:41;;;;;;;42.60;39.03;;;17.90;63.10;;;;;;5072761;28;20447;-66
2021/04/21 10:22:11;;;;;;;44.13;40.70;;;18.20;61.30;;;;;;5073123;28;20451;-65
2021/04/21 10:24:37;;;;;;;45.03;41.47;;;18.30;61.30;;;;;;5072960;28;20861;-66
2021/04/21 10:27:04;;;;;;;42.77;39.30;;;18.60;60.20;;;;;;5072766;28;20467;-65
2021/04/21 10:29:31;;;;;;;42.50;39.27;;;19.10;59.60;;;;;;5072819;28;20446;-66
2021/04/21 10:31:58;;;;;;;40.03;37.10;;;19.30;58.20;;;;;;5073046;28;20504;-66
2021/04/21 10:34:27;;;;;;;39.87;36.67;;;20.30;56.70;;;;;;5072905;28;20496;-66
2021/04/21 10:36:53;;;;;;;39.97;37.23;;;20.40;54.20;;;;;;5072680;28;20485;-66
2021/04/21 10:39:33;;;;;;;39.43;36.53;;;20.30;50.50;;;;;;5072487;28;20435;-66
2021/04/21 10:42:05;;;;;;;39.03;36.03;;;20.40;50.70;;;;;;5072772;28;20443;-65
2021/04/21 10:44:32;;;;;;;38.50;35.70;;;20.10;48.20;;;;;;5072968;28;20447;-65
2021/04/21 10:47:10;;;;;;;39.03;36.17;;;19.80;48.20;;;;;;5072857;28;20528;-64
2021/04/21 10:49:38;;;;;;;37.70;34.90;;;19.30;49.50;;;;;;5072415;28;20478;-64
2021/04/21 10:52:13;;;;;;;35.30;32.90;;;19.50;49.60;;;;;;5072404;28;20459;-63
2021/04/21 10:54:40;;;;;;;37.93;34.80;;;20.20;49.40;;;;;;5072514;28;20527;-66
2021/04/21 10:57:41;;;;;;;35.23;32.43;;;20.80;48.90;;;;;;5072604;28;20444;-65
2021/04/21 11:00:14;;;;;;;35.93;32.97;;;21.00;46.70;;;;;;5010580;28;20529;-66
2021/04/21 11:02:48;;;;;;;34.92;32.28;;;21.00;44.80;;;;;;5010395;28;21131;-66
2021/04/21 11:05:16;;;;;;;34.83;32.47;;;21.50;44.40;;;;;;5044409;28;20240;-67
2021/04/21 11:07:45;;;;;;;34.83;32.27;;;21.90;44.30;;;;;;5072023;28;20475;-66
2021/04/21 11:10:35;;;;;;;34.17;31.77;;;21.80;43.40;;;;;;5072264;28;20445;-64
2021/04/21 11:13:03;;;;;;;35.07;32.40;;;21.90;43.00;;;;;;5072227;28;20439;-66
2021/04/21 11:15:37;;;;;;;33.70;31.10;;;21.80;42.10;;;;;;5071992;28;20463;-66
2021/04/21 11:18:28;;;;;;;33.93;31.63;;;22.30;40.80;;;;;;5071747;28;20496;-66
2021/04/21 11:21:05;;;;;;;29.80;27.93;;;23.00;40.30;;;;;;5056823;28;20451;-65
2021/04/21 11:23:52;;;;;;;31.57;29.50;;;23.70;37.90;;;;;;5071628;28;20450;-66
2021/04/21 11:26:34;;;;;;;31.20;29.20;;;23.70;35.50;;;;;;5071698;28;20458;-66
2021/04/21 11:29:02;;;;;;;29.50;27.70;;;24.60;34.50;;;;;;5071660;28;20479;-65
2021/04/21 11:32:02;;;;;;;31.53;29.63;;;25.40;32.80;;;;;;5071665;28;20447;-65
2021/04/21 11:34:29;;;;;;;30.70;28.60;;;26.10;32.50;;;;;;5071558;28;20443;-66
2021/04/21 11:36:56;;;;;;;29.77;27.87;;;26.70;32.20;;;;;;5071639;28;20832;-66
2021/04/21 11:39:58;;;;;;;30.30;28.60;;;27.70;30.30;;;;;;5071420;28;20860;-66
2021/04/21 11:42:32;;;;;;;30.93;29.03;;;26.50;30.20;;;;;;5009706;28;20445;-66
2021/04/21 11:45:00;;;;;;;31.37;29.17;;;26.80;30.30;;;;;;5062269;28;21005;-66
2021/04/21 11:47:32;;;;;;;33.27;31.37;;;25.70;29.70;;;;;;5071574;28;21085;-65
2021/04/21 11:50:06;;;;;;;32.37;30.27;;;26.20;30.40;;;;;;5071642;28;20442;-66
2021/04/21 11:52:43;;;;;;;32.20;30.37;;;26.40;30.50;;;;;;5071533;28;20446;-66
2021/04/21 11:55:10;;;;;;;31.93;30.13;;;25.90;30.60;;;;;;5071429;28;20517;-66
2021/04/21 11:57:37;;;;;;;33.13;31.13;;;25.20;31.60;;;;;;5071343;28;20446;-66
2021/04/21 12:00:07;;;;;;;32.17;30.10;;;26.10;31.60;;;;;;5071600;28;20443;-65
2021/04/21 12:02:34;;;;;;;30.60;28.80;;;26.90;30.70;;;;;;5071436;28;20450;-66
2021/04/21 12:05:00;;;;;;;32.33;30.23;;;28.00;29.40;;;;;;5071509;28;20455;-66
2021/04/21 12:07:27;;;;;;;30.50;28.67;;;29.00;28.70;;;;;;5071296;28;20719;-66
2021/04/21 12:09:54;;;;;;;30.63;28.87;;;29.20;27.70;;;;;;5070577;28;20451;-66
2021/04/21 12:12:24;;;;;;;29.63;28.13;;;29.00;27.00;;;;;;5071559;28;20443;-66
2021/04/21 12:15:03;;;;;;;31.03;28.83;;;27.20;27.30;;;;;;5071437;28;20439;-66
2021/04/21 12:17:29;;;;;;;32.53;30.33;;;27.50;27.80;;;;;;5071388;28;20443;-66
2021/04/21 12:19:57;;;;;;;31.27;29.53;;;30.00;26.90;;;;;;5071072;28;20925;-66
2021/04/21 12:22:38;;;;;;;31.63;29.40;;;31.00;25.80;;;;;;5071191;28;20443;-66
2021/04/21 12:25:06;;;;;;;31.07;29.37;;;29.70;25.40;;;;;;5071195;28;20512;-65
2021/04/21 12:27:34;;;;;;;31.00;29.47;;;31.40;24.10;;;;;;5070953;28;20478;-65
2021/04/21 12:30:10;;;;;;;28.97;27.20;;;29.50;24.50;;;;;;5071177;28;21013;-66
2021/04/21 12:32:36;;;;;;;30.80;28.90;;;29.70;24.80;;;;;;5071213;28;20442;-66
2021/04/21 12:35:03;;;;;;;31.40;29.37;;;29.30;25.50;;;;;;5071148;28;20455;-66
2021/04/21 12:37:30;;;;;;;31.10;29.33;;;29.40;26.00;;;;;;5070945;28;20471;-63
2021/04/21 12:39:56;;;;;;;30.67;28.87;;;27.90;26.80;;;;;;5070955;28;20454;-66
2021/04/21 12:42:22;;;;;;;30.77;29.03;;;27.60;27.00;;;;;;5071271;28;20447;-65
2021/04/21 12:44:48;;;;;;;31.30;29.40;;;27.60;27.60;;;;;;5071055;28;20477;-66
2021/04/21 12:47:15;;;;;;;32.00;30.03;;;27.00;28.70;;;;;;5071275;28;20493;-66
2021/04/21 12:49:43;;;;;;;30.37;28.57;;;27.50;28.80;;;;;;5070831;28;20793;-65
2021/04/21 12:52:11;;;;;;;32.70;31.00;;;27.90;27.90;;;;;;5071057;28;20443;-66
2021/04/21 12:54:40;;;;;;;29.63;27.87;;;29.40;27.50;;;;;;5071301;28;20837;-65
2021/04/21 12:57:09;;;;;;;31.70;29.93;;;28.20;27.10;;;;;;5071297;28;20475;-66